Sultan Atasoy — TCYG9 — position and weather

sailwx.info

Track history (hours):
 
Tides and Currents Weather Stations Pressure Air Temp Water Temp Dewpoint Dewpoint Depression Visibility Wind Speed Wind Dir Waves Ship Positions

Sultan Atasoy

Last reported at 2014-Oct-30 15:33 UTC. Time now 2014-Oct-31 04:51 UTC.
Position N 46°34' E 031°02'.

Length 109 m; draft 3.7 m.

Type: Ship. MMSI: 271040963.

Date/timePositionNaut miles runAvg speedWind from/ knotsBaromVisibWave heightAir tempDewpointWater temp
2014-Oct-30 15:33N 46°34' E 031°02'0 0.0
2014-Oct-30 14:33N 46°34' E 031°02'0 0.0
2014-Oct-30 13:33N 46°34' E 031°02'0 0.1
2014-Oct-30 10:33N 46°34' E 031°01'1210.6
2014-Oct-30 09:24N 46°22' E 030°57'1011.8
2014-Oct-30 08:33N 46°12' E 030°58'30011.1
2014-Oct-29 05:33N 41°22' E 029°12'23 9.2
2014-Oct-29 03:04N 41°01' E 028°60'4 7.3
2014-Oct-29 02:33N 40°57' E 029°01'9 8.6
2014-Oct-29 01:33N 40°53' E 029°10'0 0.0
2014-Oct-28 23:30N 40°53' E 029°10'0 0.0
2014-Oct-28 22:30N 40°53' E 029°10'0 0.0
2014-Oct-28 21:24N 40°53' E 029°10'0 0.0
2014-Oct-28 20:30N 40°53' E 029°10'0 0.0
2014-Oct-28 19:30N 40°53' E 029°10'0 0.0
2014-Oct-28 18:30N 40°53' E 029°10'0 0.0
2014-Oct-28 17:30N 40°53' E 029°10'0 0.0
2014-Oct-28 16:30N 40°53' E 029°10'0 0.0
2014-Oct-28 15:18N 40°53' E 029°10'0 0.0
2014-Oct-28 14:30N 40°53' E 029°10'0 0.0
2014-Oct-28 13:30N 40°53' E 029°10'0 0.0
2014-Oct-28 12:30N 40°53' E 029°10'0 0.0
2014-Oct-28 11:30N 40°53' E 029°10'0 0.0
2014-Oct-28 10:18N 40°53' E 029°10'0 0.0
2014-Oct-28 09:30N 40°53' E 029°10'0 0.0
2014-Oct-28 08:30N 40°53' E 029°10'0 0.0
2014-Oct-28 07:30N 40°53' E 029°10'0 0.0
2014-Oct-28 06:30N 40°53' E 029°10'0 0.0
2014-Oct-28 05:30N 40°53' E 029°10'0 0.0
2014-Oct-28 04:24N 40°53' E 029°10'0 0.1
2014-Oct-28 03:30N 40°53' E 029°10'0 0.0
2014-Oct-28 02:30N 40°53' E 029°10'0 0.0
2014-Oct-28 01:30N 40°53' E 029°10'0 0.0
2014-Oct-28 00:18N 40°53' E 029°10'0 0.0
2014-Oct-27 23:30N 40°53' E 029°10'0 0.0
2014-Oct-27 22:30N 40°53' E 029°10'0 0.0
2014-Oct-27 21:30N 40°53' E 029°10'0 0.0
2014-Oct-26 17:30N 40°53' E 029°10'0 0.0
2014-Oct-26 16:18N 40°53' E 029°10'0 0.0
2014-Oct-26 15:30N 40°53' E 029°10'0 0.0
2014-Oct-26 14:30N 40°53' E 029°10'0 0.0
2014-Oct-26 13:30N 40°53' E 029°10'0 0.0
2014-Oct-26 12:30N 40°53' E 029°10'0 0.0
2014-Oct-26 11:30N 40°53' E 029°10'0 0.0
2014-Oct-26 10:30N 40°53' E 029°10'0 0.1
2014-Oct-26 09:30N 40°53' E 029°10'0 0.0
2014-Oct-26 08:30N 40°53' E 029°10'0 0.0
2014-Oct-26 07:30N 40°53' E 029°10'0 0.0
2014-Oct-26 06:18N 40°53' E 029°10'0 0.0
2014-Oct-26 05:30N 40°53' E 029°10'0 0.0
2014-Oct-26 04:30N 40°53' E 029°10'0 0.0
2014-Oct-26 03:30N 40°53' E 029°10'0 0.1
2014-Oct-26 02:30N 40°53' E 029°10'0 0.1
2014-Oct-26 01:30N 40°53' E 029°10'0 0.0
2014-Oct-26 00:18N 40°53' E 029°10'0 0.0
2014-Oct-25 23:30N 40°53' E 029°10'0 0.0
2014-Oct-25 22:24N 40°53' E 029°10'0 0.0
2014-Oct-25 21:30N 40°53' E 029°10'0 0.0
2014-Oct-25 20:30N 40°53' E 029°10'0 0.0
2014-Oct-25 19:30N 40°53' E 029°10'0 0.0
2014-Oct-25 18:30N 40°53' E 029°10'0 0.1
2014-Oct-25 17:30N 40°53' E 029°10'0 0.0
2014-Oct-25 16:30N 40°53' E 029°10'0 0.0
2014-Oct-25 15:31N 40°53' E 029°10'6 6.0
2014-Oct-25 14:34N 40°50' E 029°04'1211.8
2014-Oct-25 13:32N 40°49' E 028°48'  
2014-Oct-21 22:03N 40°52' E 028°33'510.1
2014-Oct-21 21:33N 40°53' E 028°40'1010.3
2014-Oct-21 20:33N 40°52' E 028°53'1110.8
2014-Oct-21 19:33N 40°50' E 029°07'5 5.0
2014-Oct-21 18:33N 40°53' E 029°12'0 0.0
2014-Oct-21 17:32N 40°53' E 029°12'0 0.0
2014-Oct-21 16:32N 40°53' E 029°12'0 0.0
2014-Oct-21 15:32N 40°53' E 029°12'0 0.0
2014-Oct-21 14:32N 40°53' E 029°12'0 0.0
2014-Oct-21 13:32N 40°53' E 029°12'0 0.0
2014-Oct-21 12:32N 40°53' E 029°12'0 0.0
2014-Oct-21 11:32N 40°53' E 029°12'0 0.0
2014-Oct-21 10:32N 40°53' E 029°12'0 0.0
2014-Oct-21 09:32N 40°53' E 029°12'0 0.0
2014-Oct-21 08:14N 40°53' E 029°12'0 0.0
2014-Oct-21 07:20N 40°53' E 029°12'0 0.0
2014-Oct-21 06:32N 40°53' E 029°12'0 0.0
2014-Oct-21 05:32N 40°53' E 029°12'0 0.0
2014-Oct-21 04:26N 40°53' E 029°12'0 0.0
2014-Oct-21 03:32N 40°53' E 029°12'0 0.0
2014-Oct-21 02:26N 40°53' E 029°12'0 0.0
2014-Oct-21 01:32N 40°53' E 029°12'0 0.0
2014-Oct-21 00:26N 40°53' E 029°12'0 0.0
2014-Oct-20 23:32N 40°53' E 029°12'0 0.0
2014-Oct-20 22:32N 40°53' E 029°12'0 0.0
2014-Oct-20 21:32N 40°53' E 029°12'0 0.0
2014-Oct-20 20:32N 40°53' E 029°12'0 0.0
2014-Oct-20 19:32N 40°53' E 029°12'0 0.0
2014-Oct-20 18:26N 40°53' E 029°12'0 0.0
2014-Oct-20 17:32N 40°53' E 029°12'0 0.0
2014-Oct-20 16:20N 40°53' E 029°12'  
Track history (hours):
 
Tides and Currents Weather Stations Pressure Air Temp Water Temp Dewpoint Dewpoint Depression Visibility Wind Speed Wind Dir Waves Ship Positions

Sultan Atasoy

Last reported at 2014-Oct-30 15:33 UTC. Time now 2014-Oct-31 04:51 UTC.
Position N 46°34' E 031°02'.

Length 109 m; draft 3.7 m.

Type: Ship. MMSI: 271040963.

Date/timePositionNaut miles runAvg speedWind from/ knotsBaromVisibWave heightAir tempDewpointWater temp
2014-Oct-30 15:33N 46°34' E 031°02'0 0.0
2014-Oct-30 14:33N 46°34' E 031°02'0 0.0
2014-Oct-30 13:33N 46°34' E 031°02'0 0.1
2014-Oct-30 10:33N 46°34' E 031°01'1210.6
2014-Oct-30 09:24N 46°22' E 030°57'1011.8
2014-Oct-30 08:33N 46°12' E 030°58'30011.1
2014-Oct-29 05:33N 41°22' E 029°12'23 9.2
2014-Oct-29 03:04N 41°01' E 028°60'4 7.3
2014-Oct-29 02:33N 40°57' E 029°01'9 8.6
2014-Oct-29 01:33N 40°53' E 029°10'0 0.0
2014-Oct-28 23:30N 40°53' E 029°10'0 0.0
2014-Oct-28 22:30N 40°53' E 029°10'0 0.0
2014-Oct-28 21:24N 40°53' E 029°10'0 0.0
2014-Oct-28 20:30N 40°53' E 029°10'0 0.0
2014-Oct-28 19:30N 40°53' E 029°10'0 0.0
2014-Oct-28 18:30N 40°53' E 029°10'0 0.0
2014-Oct-28 17:30N 40°53' E 029°10'0 0.0
2014-Oct-28 16:30N 40°53' E 029°10'0 0.0
2014-Oct-28 15:18N 40°53' E 029°10'0 0.0
2014-Oct-28 14:30N 40°53' E 029°10'0 0.0
2014-Oct-28 13:30N 40°53' E 029°10'0 0.0
2014-Oct-28 12:30N 40°53' E 029°10'0 0.0
2014-Oct-28 11:30N 40°53' E 029°10'0 0.0
2014-Oct-28 10:18N 40°53' E 029°10'0 0.0
2014-Oct-28 09:30N 40°53' E 029°10'0 0.0
2014-Oct-28 08:30N 40°53' E 029°10'0 0.0
2014-Oct-28 07:30N 40°53' E 029°10'0 0.0
2014-Oct-28 06:30N 40°53' E 029°10'0 0.0
2014-Oct-28 05:30N 40°53' E 029°10'0 0.0
2014-Oct-28 04:24N 40°53' E 029°10'0 0.1
2014-Oct-28 03:30N 40°53' E 029°10'0 0.0
2014-Oct-28 02:30N 40°53' E 029°10'0 0.0
2014-Oct-28 01:30N 40°53' E 029°10'0 0.0
2014-Oct-28 00:18N 40°53' E 029°10'0 0.0
2014-Oct-27 23:30N 40°53' E 029°10'0 0.0
2014-Oct-27 22:30N 40°53' E 029°10'0 0.0
2014-Oct-27 21:30N 40°53' E 029°10'0 0.0
2014-Oct-26 17:30N 40°53' E 029°10'0 0.0
2014-Oct-26 16:18N 40°53' E 029°10'0 0.0
2014-Oct-26 15:30N 40°53' E 029°10'0 0.0
2014-Oct-26 14:30N 40°53' E 029°10'0 0.0
2014-Oct-26 13:30N 40°53' E 029°10'0 0.0
2014-Oct-26 12:30N 40°53' E 029°10'0 0.0
2014-Oct-26 11:30N 40°53' E 029°10'0 0.0
2014-Oct-26 10:30N 40°53' E 029°10'0 0.1
2014-Oct-26 09:30N 40°53' E 029°10'0 0.0
2014-Oct-26 08:30N 40°53' E 029°10'0 0.0
2014-Oct-26 07:30N 40°53' E 029°10'0 0.0
2014-Oct-26 06:18N 40°53' E 029°10'0 0.0
2014-Oct-26 05:30N 40°53' E 029°10'0 0.0
2014-Oct-26 04:30N 40°53' E 029°10'0 0.0
2014-Oct-26 03:30N 40°53' E 029°10'0 0.1
2014-Oct-26 02:30N 40°53' E 029°10'0 0.1
2014-Oct-26 01:30N 40°53' E 029°10'0 0.0
2014-Oct-26 00:18N 40°53' E 029°10'0 0.0
2014-Oct-25 23:30N 40°53' E 029°10'0 0.0
2014-Oct-25 22:24N 40°53' E 029°10'0 0.0
2014-Oct-25 21:30N 40°53' E 029°10'0 0.0
2014-Oct-25 20:30N 40°53' E 029°10'0 0.0
2014-Oct-25 19:30N 40°53' E 029°10'0 0.0
2014-Oct-25 18:30N 40°53' E 029°10'0 0.1
2014-Oct-25 17:30N 40°53' E 029°10'0 0.0
2014-Oct-25 16:30N 40°53' E 029°10'0 0.0
2014-Oct-25 15:31N 40°53' E 029°10'6 6.0
2014-Oct-25 14:34N 40°50' E 029°04'1211.8
2014-Oct-25 13:32N 40°49' E 028°48'  
2014-Oct-21 22:03N 40°52' E 028°33'510.1
2014-Oct-21 21:33N 40°53' E 028°40'1010.3
2014-Oct-21 20:33N 40°52' E 028°53'1110.8
2014-Oct-21 19:33N 40°50' E 029°07'5 5.0
2014-Oct-21 18:33N 40°53' E 029°12'0 0.0
2014-Oct-21 17:32N 40°53' E 029°12'0 0.0
2014-Oct-21 16:32N 40°53' E 029°12'0 0.0
2014-Oct-21 15:32N 40°53' E 029°12'0 0.0
2014-Oct-21 14:32N 40°53' E 029°12'0 0.0
2014-Oct-21 13:32N 40°53' E 029°12'0 0.0
2014-Oct-21 12:32N 40°53' E 029°12'0 0.0
2014-Oct-21 11:32N 40°53' E 029°12'0 0.0
2014-Oct-21 10:32N 40°53' E 029°12'0 0.0
2014-Oct-21 09:32N 40°53' E 029°12'0 0.0
2014-Oct-21 08:14N 40°53' E 029°12'0 0.0
2014-Oct-21 07:20N 40°53' E 029°12'0 0.0
2014-Oct-21 06:32N 40°53' E 029°12'0 0.0
2014-Oct-21 05:32N 40°53' E 029°12'0 0.0
2014-Oct-21 04:26N 40°53' E 029°12'0 0.0
2014-Oct-21 03:32N 40°53' E 029°12'0 0.0
2014-Oct-21 02:26N 40°53' E 029°12'0 0.0
2014-Oct-21 01:32N 40°53' E 029°12'0 0.0
2014-Oct-21 00:26N 40°53' E 029°12'0 0.0
2014-Oct-20 23:32N 40°53' E 029°12'0 0.0
2014-Oct-20 22:32N 40°53' E 029°12'0 0.0
2014-Oct-20 21:32N 40°53' E 029°12'0 0.0
2014-Oct-20 20:32N 40°53' E 029°12'0 0.0
2014-Oct-20 19:32N 40°53' E 029°12'0 0.0
2014-Oct-20 18:26N 40°53' E 029°12'0 0.0
2014-Oct-20 17:32N 40°53' E 029°12'0 0.0
2014-Oct-20 16:20N 40°53' E 029°12'  

Dump ship's entire track history